Time;durP1;ratioP1;P1;durP2;ratioP2;P2;SDS_P1;SDS_P2;PMS_P1;PMS_P2;Temp;Humidity;BMP_temperature;BMP_pressure;BME280_temperature;BME280_humidity;BME280_pressure;Samples;Min_cycle;Max_cycle;Signal;HPM_P1;HPM_P2
2023/01/10 00:00:20;;;;;;;7.72;4.22;;;;;;;;;;4904810;29;20217;-78
2023/01/10 00:02:46;;;;;;;3.30;2.78;;;;;;;;;;4907490;29;20036;-77
2023/01/10 00:05:12;;;;;;;4.73;3.30;;;;;;;;;;4907419;29;20062;-79
2023/01/10 00:07:37;;;;;;;4.77;3.30;;;;;;;;;;4907600;29;20070;-78
2023/01/10 00:10:03;;;;;;;4.67;3.30;;;;;;;;;;4906811;29;20042;-79
2023/01/10 00:15:14;;;;;;;4.40;2.80;;;;;;;;;;4927682;29;21005;-78
2023/01/10 00:17:39;;;;;;;4.50;2.78;;;;;;;;;;4912887;29;20482;-80
2023/01/10 00:20:07;;;;;;;2.70;2.47;;;;;;;;;;4912090;29;20085;-81
2023/01/10 00:22:33;;;;;;;6.22;2.78;;;;;;;;;;4911681;29;20052;-79
2023/01/10 00:24:58;;;;;;;4.63;2.87;;;;;;;;;;4923965;29;20043;-78
2023/01/10 00:27:24;;;;;;;4.83;3.03;;;;;;;;;;4921857;29;20399;-77
2023/01/10 00:29:51;;;;;;;5.07;2.37;;;;;;;;;;4921627;29;20509;-77
2023/01/10 00:32:17;;;;;;;4.78;3.33;;;;;;;;;;4923885;29;20473;-78
2023/01/10 00:34:43;;;;;;;7.60;3.65;;;;;;;;;;4907433;29;20043;-79
2023/01/10 00:37:09;;;;;;;6.00;3.60;;;;;;;;;;4923017;29;20040;-78
2023/01/10 00:39:34;;;;;;;3.27;2.63;;;;;;;;;;4923215;29;20486;-79
2023/01/10 00:44:45;;;;;;;4.50;2.72;;;;;;;;;;4921531;29;20039;-78
2023/01/10 00:47:12;;;;;;;4.95;2.85;;;;;;;;;;4923113;29;20138;-77
2023/01/10 00:49:37;;;;;;;4.40;2.60;;;;;;;;;;4921606;29;20035;-78
2023/01/10 00:52:04;;;;;;;2.22;2.10;;;;;;;;;;4920911;29;20044;-78
2023/01/10 00:54:29;;;;;;;5.60;3.30;;;;;;;;;;4905264;29;20748;-78
2023/01/10 00:56:55;;;;;;;7.53;3.20;;;;;;;;;;4920381;29;20291;-75
2023/01/10 00:59:21;;;;;;;8.50;4.60;;;;;;;;;;4920164;29;20477;-75
2023/01/10 01:01:47;;;;;;;8.30;4.43;;;;;;;;;;4904657;29;20039;-78
2023/01/10 01:04:13;;;;;;;6.77;3.50;;;;;;;;;;4905262;29;20040;-78
2023/01/10 01:06:38;;;;;;;8.93;3.67;;;;;;;;;;4905440;29;20473;-76
2023/01/10 01:09:04;;;;;;;6.97;4.30;;;;;;;;;;4905139;29;20197;-77
2023/01/10 01:11:29;;;;;;;6.33;2.80;;;;;;;;;;4904928;29;20501;-77
2023/01/10 01:13:55;;;;;;;5.53;3.93;;;;;;;;;;4904117;29;20042;-79
2023/01/10 01:16:21;;;;;;;5.20;3.67;;;;;;;;;;4920488;29;20032;-77
2023/01/10 01:18:47;;;;;;;3.53;2.83;;;;;;;;;;4904463;29;20046;-78
2023/01/10 01:21:13;;;;;;;8.73;3.10;;;;;;;;;;4904100;29;20039;-78
2023/01/10 01:23:39;;;;;;;2.87;2.47;;;;;;;;;;4920228;29;20493;-77
2023/01/10 01:26:05;;;;;;;8.15;3.95;;;;;;;;;;4904821;29;20091;-79
2023/01/10 01:28:31;;;;;;;5.43;3.03;;;;;;;;;;4905027;29;20106;-79
2023/01/10 01:30:57;;;;;;;3.70;3.17;;;;;;;;;;4905860;29;20477;-79
2023/01/10 01:33:23;;;;;;;10.45;4.93;;;;;;;;;;4905117;29;20079;-80
2023/01/10 01:35:49;;;;;;;6.43;4.03;;;;;;;;;;4926317;29;20040;-81
2023/01/10 01:38:15;;;;;;;7.43;4.10;;;;;;;;;;4912073;29;20086;-78
2023/01/10 01:40:41;;;;;;;8.65;4.30;;;;;;;;;;4904223;29;20046;-79
2023/01/10 01:43:24;;;;;;;10.97;5.00;;;;;;;;;;4937106;29;20411;-80
2023/01/10 01:45:50;;;;;;;3.08;2.78;;;;;;;;;;4923111;29;20052;-78
2023/01/10 01:48:27;;;;;;;2.83;2.55;;;;;;;;;;4905841;29;20095;-79
2023/01/10 01:50:58;;;;;;;8.23;5.05;;;;;;;;;;4936389;29;20078;-79
2023/01/10 01:53:27;;;;;;;5.60;3.55;;;;;;;;;;4904727;29;20405;-78
2023/01/10 01:55:54;;;;;;;6.30;4.13;;;;;;;;;;4919414;29;20036;-77
2023/01/10 01:58:24;;;;;;;9.65;4.45;;;;;;;;;;4921790;29;20040;-79
2023/01/10 02:00:50;;;;;;;5.18;3.92;;;;;;;;;;4920047;29;20192;-78
2023/01/10 02:03:16;;;;;;;6.00;4.07;;;;;;;;;;4903803;29;20043;-79
2023/01/10 02:05:42;;;;;;;5.13;3.27;;;;;;;;;;4904052;29;20456;-77
2023/01/10 02:08:08;;;;;;;8.90;4.32;;;;;;;;;;4905122;29;20033;-80
2023/01/10 02:10:40;;;;;;;6.40;3.03;;;;;;;;;;4906880;29;20142;-79
2023/01/10 02:13:07;;;;;;;5.90;3.42;;;;;;;;;;4920317;29;20040;-79
2023/01/10 02:15:33;;;;;;;7.68;4.45;;;;;;;;;;4910085;29;20031;-79
2023/01/10 02:18:00;;;;;;;6.83;4.13;;;;;;;;;;4909736;29;20066;-78
2023/01/10 02:20:29;;;;;;;4.68;2.95;;;;;;;;;;4903922;29;20288;-79
2023/01/10 02:22:56;;;;;;;;;;;;;;;;;;4941100;29;20035;-80
2023/01/10 02:25:44;;;;;;;4.60;3.92;;;;;;;;;;4938595;29;19923;-78
2023/01/10 02:28:42;;;;;;;4.10;3.20;;;;;;;;;;4933420;29;20064;-79
2023/01/10 02:31:17;;;;;;;5.57;2.90;;;;;;;;;;4885174;29;20130;-80
2023/01/10 02:34:22;;;;;;;6.10;3.70;;;;;;;;;;4942875;29;20039;-79
2023/01/10 02:37:19;;;;;;;3.63;3.03;;;;;;;;;;4935225;29;20039;-78
2023/01/10 02:40:12;;;;;;;6.28;3.17;;;;;;;;;;4903011;29;20039;-80
2023/01/10 02:42:38;;;;;;;;;;;;;;;;;;4901919;29;20568;-77
2023/01/10 02:45:06;;;;;;;7.30;3.77;;;;;;;;;;4916764;29;19944;-78
2023/01/10 02:47:39;;;;;;;7.45;4.53;;;;;;;;;;4901553;29;20482;-77
2023/01/10 02:50:23;;;;;;;6.47;3.75;;;;;;;;;;4901013;29;20098;-78
2023/01/10 02:52:58;;;;;;;3.45;2.83;;;;;;;;;;4919506;29;20183;-79
2023/01/10 02:55:51;;;;;;;4.38;2.97;;;;;;;;;;4921065;29;20122;-80
2023/01/10 02:58:43;;;;;;;9.10;4.30;;;;;;;;;;4918862;29;20039;-78
2023/01/10 03:01:34;;;;;;;5.38;3.25;;;;;;;;;;4939134;29;20040;-80
2023/01/10 03:04:38;;;;;;;6.13;3.90;;;;;;;;;;4920537;29;20044;-78
2023/01/10 03:07:36;;;;;;;6.68;4.63;;;;;;;;;;4919680;29;20056;-81
2023/01/10 03:10:31;;;;;;;4.37;3.20;;;;;;;;;;4950726;29;20039;-79
2023/01/10 03:13:35;;;;;;;4.40;3.47;;;;;;;;;;4951748;29;20291;-80
2023/01/10 03:16:28;;;;;;;26.20;5.93;;;;;;;;;;4949671;29;20039;-82
2023/01/10 03:22:00;;;;;;;10.75;4.40;;;;;;;;;;4944195;29;20032;-80
2023/01/10 03:24:34;;;;;;;4.15;2.83;;;;;;;;;;4945251;29;20032;-81
2023/01/10 03:27:22;;;;;;;9.95;5.47;;;;;;;;;;4923615;29;20091;-80
2023/01/10 03:30:06;;;;;;;5.33;3.07;;;;;;;;;;4938992;29;20044;-80
2023/01/10 03:32:33;;;;;;;7.07;3.23;;;;;;;;;;4940860;29;20315;-79
2023/01/10 03:35:02;;;;;;;6.70;3.60;;;;;;;;;;4951004;28;20295;-78
2023/01/10 03:37:49;;;;;;;3.97;3.35;;;;;;;;;;4937405;29;20754;-78
2023/01/10 03:40:46;;;;;;;11.60;4.73;;;;;;;;;;4923951;29;20076;-79
2023/01/10 03:46:40;;;;;;;9.00;4.30;;;;;;;;;;4916061;28;20060;-82
2023/01/10 03:49:11;;;;;;;6.63;4.20;;;;;;;;;;4910446;29;20287;-79
2023/01/10 03:51:47;;;;;;;10.03;4.80;;;;;;;;;;4954824;29;20287;-80
2023/01/10 03:54:19;;;;;;;5.87;3.60;;;;;;;;;;4936869;29;20393;-77
2023/01/10 03:56:56;;;;;;;12.57;5.83;;;;;;;;;;4952775;29;20630;-74
2023/01/10 03:59:25;;;;;;;12.90;4.90;;;;;;;;;;4955511;29;20306;-77
2023/01/10 04:01:53;;;;;;;11.17;4.43;;;;;;;;;;4953542;29;20293;-77
2023/01/10 04:04:22;;;;;;;10.00;5.70;;;;;;;;;;4952165;29;20295;-76
2023/01/10 04:06:49;;;;;;;9.15;4.82;;;;;;;;;;4952152;29;20309;-76
2023/01/10 04:09:14;;;;;;;5.83;3.80;;;;;;;;;;4920152;29;20161;-75
2023/01/10 04:11:44;;;;;;;8.97;3.50;;;;;;;;;;4920262;29;20046;-77
2023/01/10 04:14:11;;;;;;;14.65;5.88;;;;;;;;;;4951731;29;20345;-77
2023/01/10 04:16:37;;;;;;;9.07;4.23;;;;;;;;;;4922535;29;20047;-76
2023/01/10 04:19:03;;;;;;;4.53;3.67;;;;;;;;;;4922042;29;20298;-79
2023/01/10 04:21:28;;;;;;;11.13;5.90;;;;;;;;;;4925417;29;20126;-79
2023/01/10 04:23:54;;;;;;;6.17;3.93;;;;;;;;;;4926845;29;20365;-79
2023/01/10 04:26:20;;;;;;;7.03;4.17;;;;;;;;;;4924060;29;20062;-78
2023/01/10 04:28:45;;;;;;;8.80;4.47;;;;;;;;;;4936617;29;20456;-73
2023/01/10 04:31:11;;;;;;;4.47;3.10;;;;;;;;;;4920023;29;20045;-75
2023/01/10 04:33:39;;;;;;;13.47;4.27;;;;;;;;;;4919936;29;20031;-65
2023/01/10 04:36:05;;;;;;;5.27;3.67;;;;;;;;;;4919715;29;20101;-65
2023/01/10 04:38:31;;;;;;;8.03;4.70;;;;;;;;;;4919863;29;20386;-66
2023/01/10 04:40:57;;;;;;;7.90;4.43;;;;;;;;;;4919810;29;20031;-65
2023/01/10 04:43:23;;;;;;;13.20;5.17;;;;;;;;;;4920217;29;20094;-67
2023/01/10 04:45:49;;;;;;;7.23;3.83;;;;;;;;;;4921973;29;20146;-69
2023/01/10 04:48:14;;;;;;;2.83;2.60;;;;;;;;;;4927908;29;20373;-73
2023/01/10 04:50:42;;;;;;;6.57;4.43;;;;;;;;;;4923422;29;20524;-66
2023/01/10 04:53:08;;;;;;;7.47;3.83;;;;;;;;;;4923247;29;20032;-66
2023/01/10 04:55:34;;;;;;;6.73;4.23;;;;;;;;;;4923494;29;20279;-66
2023/01/10 04:58:00;;;;;;;7.80;4.63;;;;;;;;;;4899205;29;20036;-64
2023/01/10 05:00:26;;;;;;;9.27;4.53;;;;;;;;;;4918635;29;20040;-64
2023/01/10 05:02:56;;;;;;;9.47;4.93;;;;;;;;;;4919169;29;20288;-65
2023/01/10 05:05:21;;;;;;;4.90;3.60;;;;;;;;;;4918244;29;20043;-65
2023/01/10 05:07:47;;;;;;;14.57;4.77;;;;;;;;;;4903008;29;20665;-63
2023/01/10 05:10:12;;;;;;;16.90;4.97;;;;;;;;;;4902657;29;20351;-64
2023/01/10 05:12:39;;;;;;;12.87;5.23;;;;;;;;;;4902368;29;20359;-62
2023/01/10 05:15:05;;;;;;;14.27;6.00;;;;;;;;;;4900638;29;20154;-65
2023/01/10 05:17:30;;;;;;;5.43;3.70;;;;;;;;;;4900113;29;20286;-64
2023/01/10 05:19:56;;;;;;;8.40;3.83;;;;;;;;;;4900907;29;20271;-63
2023/01/10 05:22:22;;;;;;;6.10;3.77;;;;;;;;;;4899970;29;20036;-64
2023/01/10 05:24:47;;;;;;;7.87;4.13;;;;;;;;;;4900622;29;20063;-64
2023/01/10 05:27:13;;;;;;;9.97;4.30;;;;;;;;;;4899852;29;20474;-64
2023/01/10 05:29:38;;;;;;;8.90;6.10;;;;;;;;;;4917193;29;20357;-65
2023/01/10 05:32:04;;;;;;;5.83;3.50;;;;;;;;;;4902533;29;20134;-64
2023/01/10 05:34:30;;;;;;;5.17;3.73;;;;;;;;;;4919067;29;20043;-64
2023/01/10 05:36:55;;;;;;;6.80;3.60;;;;;;;;;;4902479;29;20355;-64
2023/01/10 05:39:21;;;;;;;9.27;3.77;;;;;;;;;;4903026;29;20051;-64
2023/01/10 05:41:47;;;;;;;15.13;4.57;;;;;;;;;;4902920;29;20180;-64
2023/01/10 05:44:12;;;;;;;7.87;3.63;;;;;;;;;;4902659;29;20039;-64
2023/01/10 05:46:38;;;;;;;7.90;3.47;;;;;;;;;;4902808;29;20111;-65
2023/01/10 05:49:03;;;;;;;4.63;3.20;;;;;;;;;;4902609;29;20478;-64
2023/01/10 05:51:29;;;;;;;7.63;4.20;;;;;;;;;;4898282;29;20036;-64
2023/01/10 05:53:55;;;;;;;13.23;3.90;;;;;;;;;;4901980;29;20031;-65
2023/01/10 05:56:20;;;;;;;4.90;3.40;;;;;;;;;;4902742;29;20438;-64
2023/01/10 05:58:46;;;;;;;8.60;3.77;;;;;;;;;;4903177;29;20482;-64
2023/01/10 06:01:11;;;;;;;4.73;3.47;;;;;;;;;;4902300;29;20083;-64
2023/01/10 06:03:37;;;;;;;8.77;3.77;;;;;;;;;;4903740;29;20397;-65
2023/01/10 06:06:03;;;;;;;3.80;2.83;;;;;;;;;;4918502;29;20057;-65
2023/01/10 06:08:29;;;;;;;3.60;2.83;;;;;;;;;;4902757;29;20283;-65
2023/01/10 06:10:55;;;;;;;6.27;3.90;;;;;;;;;;4902520;29;20040;-65
2023/01/10 06:13:21;;;;;;;4.40;2.90;;;;;;;;;;4918295;29;20028;-66
2023/01/10 06:15:47;;;;;;;4.27;3.03;;;;;;;;;;4918547;29;20461;-65
2023/01/10 06:18:12;;;;;;;3.50;2.50;;;;;;;;;;4918150;29;20624;-65
2023/01/10 06:20:39;;;;;;;11.03;3.87;;;;;;;;;;4902395;29;20287;-64
2023/01/10 06:23:04;;;;;;;10.57;4.10;;;;;;;;;;4902703;29;20138;-69
2023/01/10 06:25:32;;;;;;;7.43;4.17;;;;;;;;;;4902700;29;20386;-64
2023/01/10 06:27:58;;;;;;;6.43;3.97;;;;;;;;;;4902634;29;20052;-65
2023/01/10 06:30:23;;;;;;;10.77;4.13;;;;;;;;;;4917947;29;20714;-63
2023/01/10 06:32:49;;;;;;;7.47;4.00;;;;;;;;;;4902126;29;20050;-64
2023/01/10 06:35:16;;;;;;;7.30;4.33;;;;;;;;;;4902497;29;20088;-64
2023/01/10 06:37:42;;;;;;;35.97;5.13;;;;;;;;;;4902658;29;20044;-64
2023/01/10 06:40:08;;;;;;;7.37;4.10;;;;;;;;;;4918308;29;20787;-65
2023/01/10 06:42:34;;;;;;;6.67;3.20;;;;;;;;;;4902430;29;20052;-64
2023/01/10 06:44:59;;;;;;;6.77;2.83;;;;;;;;;;4902215;29;20039;-64
2023/01/10 06:47:25;;;;;;;7.50;3.27;;;;;;;;;;4902474;29;20097;-64
2023/01/10 06:49:51;;;;;;;10.37;4.80;;;;;;;;;;4902329;29;20031;-63
2023/01/10 06:52:16;;;;;;;8.23;4.23;;;;;;;;;;4901694;29;20502;-63
2023/01/10 06:54:42;;;;;;;7.43;3.00;;;;;;;;;;4918028;29;20038;-68
2023/01/10 06:57:08;;;;;;;9.63;4.43;;;;;;;;;;4901817;29;20039;-64
2023/01/10 06:59:35;;;;;;;5.93;3.47;;;;;;;;;;4902447;29;20126;-64
2023/01/10 07:02:00;;;;;;;4.77;3.43;;;;;;;;;;4902129;29;20370;-65
2023/01/10 07:04:26;;;;;;;6.27;3.87;;;;;;;;;;4902351;29;20031;-64
2023/01/10 07:06:52;;;;;;;7.83;3.60;;;;;;;;;;4901933;29;20138;-64
2023/01/10 07:09:17;;;;;;;6.10;3.17;;;;;;;;;;4901288;29;20356;-64
2023/01/10 07:11:43;;;;;;;8.80;3.83;;;;;;;;;;4916189;29;20050;-64
2023/01/10 07:14:09;;;;;;;14.03;5.27;;;;;;;;;;4901583;29;20035;-64
2023/01/10 07:16:34;;;;;;;13.20;4.10;;;;;;;;;;4901542;29;20372;-65
2023/01/10 07:19:00;;;;;;;6.97;3.80;;;;;;;;;;4917186;29;20125;-64
2023/01/10 07:21:26;;;;;;;7.57;3.70;;;;;;;;;;4917694;29;20142;-62
2023/01/10 07:23:51;;;;;;;9.73;3.37;;;;;;;;;;4900984;29;20122;-63
2023/01/10 07:26:17;;;;;;;8.40;4.40;;;;;;;;;;4899767;29;20060;-65
2023/01/10 07:28:44;;;;;;;8.93;3.93;;;;;;;;;;4900136;29;20046;-64
2023/01/10 07:31:10;;;;;;;5.57;3.70;;;;;;;;;;4916197;29;20419;-65
2023/01/10 07:33:36;;;;;;;15.73;4.27;;;;;;;;;;4901100;29;20283;-65
2023/01/10 07:36:02;;;;;;;7.63;3.67;;;;;;;;;;4900158;29;20306;-64
2023/01/10 07:38:27;;;;;;;6.13;3.30;;;;;;;;;;4916198;29;20032;-65
2023/01/10 07:40:56;;;;;;;11.33;4.23;;;;;;;;;;4900754;29;20046;-64
2023/01/10 07:43:22;;;;;;;5.90;3.40;;;;;;;;;;4899878;29;20291;-65
2023/01/10 07:45:47;;;;;;;8.67;3.60;;;;;;;;;;4901217;29;20057;-65
2023/01/10 07:48:13;;;;;;;6.53;2.90;;;;;;;;;;4901359;29;20139;-64
2023/01/10 07:50:39;;;;;;;6.20;2.90;;;;;;;;;;4900627;29;20130;-65
2023/01/10 07:53:06;;;;;;;4.87;2.60;;;;;;;;;;4900333;29;20027;-64
2023/01/10 07:55:34;;;;;;;4.17;2.73;;;;;;;;;;4901254;29;20058;-65
2023/01/10 07:58:00;;;;;;;9.70;3.67;;;;;;;;;;4900769;29;20283;-64
2023/01/10 08:00:26;;;;;;;8.87;2.93;;;;;;;;;;4900567;29;20694;-64
2023/01/10 08:02:52;;;;;;;11.63;3.37;;;;;;;;;;4915658;29;20122;-64
2023/01/10 08:05:18;;;;;;;4.50;2.90;;;;;;;;;;4899943;29;20244;-64
2023/01/10 08:07:43;;;;;;;12.23;3.03;;;;;;;;;;4900098;29;20781;-64
2023/01/10 08:10:09;;;;;;;4.33;2.80;;;;;;;;;;4899963;29;20035;-65
2023/01/10 08:12:35;;;;;;;6.30;3.33;;;;;;;;;;4899005;29;20101;-65
2023/01/10 08:15:01;;;;;;;5.87;2.97;;;;;;;;;;4900372;29;20482;-64
2023/01/10 08:17:31;;;;;;;9.60;4.03;;;;;;;;;;4897550;29;20032;-64
2023/01/10 08:19:57;;;;;;;8.17;3.23;;;;;;;;;;4916889;29;20286;-65
2023/01/10 08:22:23;;;;;;;7.93;3.37;;;;;;;;;;4903553;29;20279;-64
2023/01/10 08:24:49;;;;;;;9.07;4.00;;;;;;;;;;4918678;29;20035;-64
2023/01/10 08:27:15;;;;;;;14.47;2.93;;;;;;;;;;4919108;29;20295;-64
2023/01/10 08:29:41;;;;;;;10.13;3.03;;;;;;;;;;4903120;29;20344;-65
2023/01/10 08:32:07;;;;;;;8.10;3.13;;;;;;;;;;4918920;29;20477;-65
2023/01/10 08:34:33;;;;;;;7.43;3.73;;;;;;;;;;4918761;29;20039;-64
2023/01/10 08:36:58;;;;;;;8.97;3.63;;;;;;;;;;4918874;29;20283;-65
2023/01/10 08:39:27;;;;;;;5.50;3.17;;;;;;;;;;4903598;29;20051;-64
2023/01/10 08:41:53;;;;;;;6.80;3.10;;;;;;;;;;4919378;29;20046;-64
2023/01/10 08:44:19;;;;;;;4.57;2.57;;;;;;;;;;4918985;29;20694;-63
2023/01/10 08:46:45;;;;;;;6.60;3.27;;;;;;;;;;4897981;29;20303;-64
2023/01/10 08:49:11;;;;;;;6.97;3.40;;;;;;;;;;4902233;29;20039;-64
2023/01/10 08:51:36;;;;;;;9.53;2.73;;;;;;;;;;4902286;29;20291;-64
2023/01/10 08:54:02;;;;;;;4.50;3.00;;;;;;;;;;4902666;29;20031;-64
2023/01/10 08:56:28;;;;;;;7.77;3.70;;;;;;;;;;4903211;29;20046;-64
2023/01/10 08:58:54;;;;;;;7.33;3.10;;;;;;;;;;4903562;29;20032;-64
2023/01/10 09:01:19;;;;;;;6.10;4.47;;;;;;;;;;4901717;29;20095;-64
2023/01/10 09:03:45;;;;;;;7.13;3.17;;;;;;;;;;4902542;29;20433;-64
2023/01/10 09:06:11;;;;;;;6.80;2.80;;;;;;;;;;4904005;29;20402;-64
2023/01/10 09:08:36;;;;;;;4.57;2.73;;;;;;;;;;4903846;29;20402;-64
2023/01/10 09:11:02;;;;;;;8.20;2.80;;;;;;;;;;4903003;29;20066;-64
2023/01/10 09:13:28;;;;;;;5.27;2.57;;;;;;;;;;4903134;29;20062;-63
2023/01/10 09:15:55;;;;;;;4.63;2.30;;;;;;;;;;4919904;29;20303;-63
2023/01/10 09:18:21;;;;;;;7.33;3.33;;;;;;;;;;4903684;29;20071;-64
2023/01/10 09:20:48;;;;;;;8.13;3.00;;;;;;;;;;4903160;29;20754;-63
2023/01/10 09:23:18;;;;;;;9.17;2.80;;;;;;;;;;4903577;29;20633;-63
2023/01/10 09:25:45;;;;;;;9.97;2.83;;;;;;;;;;4919285;29;20322;-62
2023/01/10 09:28:11;;;;;;;4.73;2.73;;;;;;;;;;4903590;29;20106;-61
2023/01/10 09:30:36;;;;;;;6.30;3.23;;;;;;;;;;4902155;29;20678;-63
2023/01/10 09:33:03;;;;;;;6.93;3.97;;;;;;;;;;4919019;29;20038;-64
2023/01/10 09:35:29;;;;;;;6.30;3.03;;;;;;;;;;4919123;29;20314;-64
2023/01/10 09:38:00;;;;;;;4.53;2.60;;;;;;;;;;4919258;29;20326;-63
2023/01/10 09:40:44;;;;;;;6.53;3.17;;;;;;;;;;4935471;29;20280;-62
2023/01/10 09:43:10;;;;;;;6.50;2.70;;;;;;;;;;4918749;29;20279;-63
2023/01/10 09:45:36;;;;;;;3.93;2.77;;;;;;;;;;4902979;29;20291;-63
2023/01/10 09:48:07;;;;;;;5.83;2.90;;;;;;;;;;4903748;29;20754;-64
2023/01/10 09:50:41;;;;;;;4.93;3.07;;;;;;;;;;4918520;29;20078;-65
2023/01/10 09:53:10;;;;;;;4.50;2.80;;;;;;;;;;4917584;29;20287;-65
2023/01/10 09:55:37;;;;;;;4.77;3.00;;;;;;;;;;4902931;29;20290;-64
2023/01/10 09:58:05;;;;;;;5.33;3.43;;;;;;;;;;4902695;29;20291;-64
2023/01/10 10:00:39;;;;;;;4.77;3.23;;;;;;;;;;4902695;29;20288;-65
2023/01/10 10:03:13;;;;;;;5.07;2.53;;;;;;;;;;4918086;29;20318;-65
2023/01/10 10:05:39;;;;;;;6.70;3.30;;;;;;;;;;4903011;29;20323;-64
2023/01/10 10:08:12;;;;;;;3.90;2.50;;;;;;;;;;4902700;29;20310;-64
2023/01/10 10:10:46;;;;;;;9.90;3.20;;;;;;;;;;4902211;29;20493;-64
2023/01/10 10:13:18;;;;;;;6.67;3.30;;;;;;;;;;4901349;29;20749;-64
2023/01/10 10:15:53;;;;;;;6.90;3.00;;;;;;;;;;4918334;29;20342;-65
2023/01/10 10:18:18;;;;;;;8.47;3.03;;;;;;;;;;4918339;29;20287;-64
2023/01/10 10:20:52;;;;;;;6.83;3.10;;;;;;;;;;4902138;29;20370;-64
2023/01/10 10:23:36;;;;;;;6.07;2.83;;;;;;;;;;4902162;29;20078;-64
2023/01/10 10:26:16;;;;;;;6.40;3.53;;;;;;;;;;4902545;29;20291;-64
2023/01/10 10:28:54;;;;;;;7.70;3.00;;;;;;;;;;4918599;29;20667;-64
2023/01/10 10:31:34;;;;;;;8.30;3.17;;;;;;;;;;4917465;29;20696;-64
2023/01/10 10:34:11;;;;;;;5.90;3.28;;;;;;;;;;4901613;29;20283;-64
2023/01/10 10:36:44;;;;;;;7.50;3.37;;;;;;;;;;4902235;29;20043;-65
2023/01/10 10:39:13;;;;;;;7.80;2.87;;;;;;;;;;4902052;29;20286;-64
2023/01/10 10:41:42;;;;;;;12.37;2.67;;;;;;;;;;4933349;29;21152;-64
2023/01/10 10:44:21;;;;;;;7.80;4.07;;;;;;;;;;4916851;29;20804;-64
2023/01/10 10:46:47;;;;;;;8.40;3.07;;;;;;;;;;4902324;29;20311;-64
2023/01/10 10:49:20;;;;;;;3.63;2.60;;;;;;;;;;4902699;29;20275;-65
2023/01/10 10:51:49;;;;;;;5.23;3.03;;;;;;;;;;4901718;29;20291;-64
2023/01/10 10:54:15;;;;;;;8.10;3.80;;;;;;;;;;4916789;29;20276;-65
2023/01/10 10:56:42;;;;;;;5.97;3.43;;;;;;;;;;4902062;29;20399;-62
2023/01/10 10:59:08;;;;;;;7.20;3.17;;;;;;;;;;4901704;29;20822;-64
2023/01/10 11:01:34;;;;;;;6.47;3.00;;;;;;;;;;4901526;29;20047;-63
2023/01/10 11:04:00;;;;;;;10.53;4.30;;;;;;;;;;4901643;29;20036;-62
2023/01/10 11:06:28;;;;;;;4.27;2.90;;;;;;;;;;4932532;29;20158;-61
2023/01/10 11:08:56;;;;;;;4.83;2.60;;;;;;;;;;4917361;29;20264;-60
2023/01/10 11:11:36;;;;;;;6.50;3.00;;;;;;;;;;4916473;29;21137;-63
2023/01/10 11:14:04;;;;;;;7.25;3.47;;;;;;;;;;4899906;29;20283;-64
2023/01/10 11:16:31;;;;;;;5.93;3.37;;;;;;;;;;4913730;29;20066;-61
2023/01/10 11:19:09;;;;;;;4.93;3.10;;;;;;;;;;4916049;29;20276;-62
2023/01/10 11:21:35;;;;;;;8.33;4.13;;;;;;;;;;4914365;29;20370;-63
2023/01/10 11:24:01;;;;;;;6.20;3.33;;;;;;;;;;4917662;29;20283;-61
2023/01/10 11:26:34;;;;;;;5.37;3.70;;;;;;;;;;4901236;29;20322;-61
2023/01/10 11:29:03;;;;;;;7.53;3.93;;;;;;;;;;4901436;29;20035;-60
2023/01/10 11:31:29;;;;;;;10.40;3.63;;;;;;;;;;4899965;29;20279;-62
2023/01/10 11:33:55;;;;;;;6.47;3.23;;;;;;;;;;4899484;29;20303;-63
2023/01/10 11:36:21;;;;;;;6.97;3.30;;;;;;;;;;4899597;29;20331;-62
2023/01/10 11:38:58;;;;;;;7.13;3.43;;;;;;;;;;4900628;29;20036;-64
2023/01/10 11:41:26;;;;;;;5.93;3.50;;;;;;;;;;4897588;29;20439;-63
2023/01/10 11:43:51;;;;;;;9.40;4.07;;;;;;;;;;4900037;29;20472;-63
2023/01/10 11:46:23;;;;;;;8.40;3.30;;;;;;;;;;4898086;29;20832;-63
2023/01/10 11:48:59;;;;;;;7.43;3.57;;;;;;;;;;4899858;29;20507;-63
2023/01/10 11:51:31;;;;;;;9.77;3.70;;;;;;;;;;4896601;29;20891;-63
2023/01/10 11:54:15;;;;;;;6.17;2.70;;;;;;;;;;4932052;29;20279;-65
2023/01/10 11:56:50;;;;;;;4.00;2.83;;;;;;;;;;4913535;29;20627;-64
2023/01/10 11:59:26;;;;;;;9.20;3.30;;;;;;;;;;4932039;29;20817;-64
2023/01/10 12:02:10;;;;;;;4.60;3.37;;;;;;;;;;4900531;29;21296;-64
2023/01/10 12:04:40;;;;;;;5.90;3.43;;;;;;;;;;4915065;29;20287;-63
2023/01/10 12:07:08;;;;;;;5.23;3.33;;;;;;;;;;4899050;29;20311;-61
2023/01/10 12:09:41;;;;;;;5.63;3.03;;;;;;;;;;4916125;29;20902;-63
2023/01/10 12:12:20;;;;;;;8.03;4.17;;;;;;;;;;4914323;29;20686;-64
2023/01/10 12:14:46;;;;;;;5.63;2.93;;;;;;;;;;4897795;29;20378;-59
2023/01/10 12:17:19;;;;;;;10.03;4.40;;;;;;;;;;4914690;29;20319;-63
2023/01/10 12:19:45;;;;;;;10.83;4.70;;;;;;;;;;4913369;29;20385;-63
2023/01/10 12:22:13;;;;;;;5.90;4.10;;;;;;;;;;4916032;29;20390;-62
2023/01/10 12:24:41;;;;;;;9.13;4.43;;;;;;;;;;4899736;29;20820;-64
2023/01/10 12:27:09;;;;;;;6.83;3.53;;;;;;;;;;4914501;29;20303;-63
2023/01/10 12:29:38;;;;;;;8.10;3.63;;;;;;;;;;4915349;29;20817;-64
2023/01/10 12:32:04;;;;;;;9.73;4.33;;;;;;;;;;4898965;29;20607;-63
2023/01/10 12:34:37;;;;;;;8.07;3.53;;;;;;;;;;4899435;29;20280;-63
2023/01/10 12:37:07;;;;;;;6.70;3.57;;;;;;;;;;4914839;29;20284;-61
2023/01/10 12:39:38;;;;;;;7.18;3.15;;;;;;;;;;4916246;29;20667;-62
2023/01/10 12:44:56;;;;;;;6.80;4.10;;;;;;;;;;4916253;29;20096;-62
2023/01/10 12:47:22;;;;;;;;;;;;;;;;;;4900257;29;20554;-60
2023/01/10 12:50:03;;;;;;;8.90;3.30;;;;;;;;;;4916452;29;20387;-61
2023/01/10 12:52:32;;;;;;;10.40;4.87;;;;;;;;;;4916637;29;20040;-61
2023/01/10 12:54:59;;;;;;;7.60;3.57;;;;;;;;;;4900601;29;20623;-61
2023/01/10 12:57:30;;;;;;;9.17;3.30;;;;;;;;;;4899953;29;20295;-61
2023/01/10 12:59:58;;;;;;;5.60;3.27;;;;;;;;;;4915819;29;20371;-63
2023/01/10 13:02:25;;;;;;;8.70;4.40;;;;;;;;;;4900637;29;20303;-61
2023/01/10 13:04:54;;;;;;;7.97;3.53;;;;;;;;;;4916428;29;20288;-63
2023/01/10 13:07:21;;;;;;;7.33;3.37;;;;;;;;;;4918360;29;20311;-61
2023/01/10 13:09:47;;;;;;;11.63;3.50;;;;;;;;;;4919495;29;20785;-63
2023/01/10 13:12:33;;;;;;;6.90;3.70;;;;;;;;;;4918426;29;20276;-62
2023/01/10 13:15:16;;;;;;;5.27;3.13;;;;;;;;;;4901863;29;20378;-62
2023/01/10 13:17:45;;;;;;;7.20;3.40;;;;;;;;;;4901631;29;20286;-59
2023/01/10 13:20:20;;;;;;;6.87;3.97;;;;;;;;;;4901798;29;20276;-61
2023/01/10 13:22:47;;;;;;;6.27;3.63;;;;;;;;;;4917562;29;20280;-64
2023/01/10 13:25:31;;;;;;;10.77;4.63;;;;;;;;;;4902088;29;20314;-62
2023/01/10 13:28:01;;;;;;;4.47;2.80;;;;;;;;;;4902217;29;20979;-61
2023/01/10 13:30:30;;;;;;;6.43;3.83;;;;;;;;;;4934425;29;20788;-63
2023/01/10 13:33:19;;;;;;;6.83;3.27;;;;;;;;;;4903439;29;20283;-63
2023/01/10 13:35:47;;;;;;;6.07;3.23;;;;;;;;;;4915355;29;20287;-61
2023/01/10 13:38:32;;;;;;;3.87;2.77;;;;;;;;;;4918788;29;20780;-64
2023/01/10 13:40:59;;;;;;;5.27;3.20;;;;;;;;;;4917933;29;20283;-62
2023/01/10 13:43:35;;;;;;;7.77;3.50;;;;;;;;;;4934020;29;20357;-62
2023/01/10 13:46:16;;;;;;;7.47;3.17;;;;;;;;;;4918855;29;20856;-61
2023/01/10 13:48:49;;;;;;;5.23;3.07;;;;;;;;;;4918079;29;20342;-64
2023/01/10 13:51:21;;;;;;;23.00;3.83;;;;;;;;;;4917551;29;20295;-63
2023/01/10 13:53:54;;;;;;;9.87;4.20;;;;;;;;;;4902858;29;20284;-60
2023/01/10 13:56:28;;;;;;;5.90;3.10;;;;;;;;;;4918666;29;20463;-62
2023/01/10 14:04:24;;;;;;;4.87;2.80;;;;;;;;;;4918525;29;20286;-62
2023/01/10 14:07:03;;;;;;;5.43;3.63;;;;;;;;;;4901591;29;20416;-61
2023/01/10 14:09:33;;;;;;;9.47;4.77;;;;;;;;;;4900017;29;20567;-64
2023/01/10 14:12:34;;;;;;;12.57;4.68;;;;;;;;;;4915564;29;20287;-63
2023/01/10 14:15:06;;;;;;;11.47;5.07;;;;;;;;;;4880564;29;20058;-64
2023/01/10 14:17:33;;;;;;;11.63;3.33;;;;;;;;;;4892853;29;20334;-64
2023/01/10 14:20:01;;;;;;;9.90;4.47;;;;;;;;;;4899775;29;20290;-64
2023/01/10 14:22:31;;;;;;;10.73;4.13;;;;;;;;;;4917745;29;20306;-64
2023/01/10 14:24:58;;;;;;;6.80;3.70;;;;;;;;;;4902980;29;20370;-65
2023/01/10 14:27:24;;;;;;;7.03;4.10;;;;;;;;;;4918081;29;20387;-65
2023/01/10 14:29:59;;;;;;;12.90;4.27;;;;;;;;;;4917760;29;20370;-64
2023/01/10 14:32:25;;;;;;;6.23;3.40;;;;;;;;;;4902283;29;20042;-63
2023/01/10 14:34:51;;;;;;;7.90;3.60;;;;;;;;;;4917757;29;20280;-64
2023/01/10 14:37:24;;;;;;;7.20;4.03;;;;;;;;;;4901925;29;20462;-64
2023/01/10 14:39:52;;;;;;;7.13;3.63;;;;;;;;;;4902436;29;20314;-65
2023/01/10 14:42:18;;;;;;;7.20;4.03;;;;;;;;;;4901887;29;20725;-64
2023/01/10 14:44:49;;;;;;;3.43;2.67;;;;;;;;;;4917938;29;20315;-64
2023/01/10 14:47:26;;;;;;;5.23;3.27;;;;;;;;;;4902524;29;20379;-64
2023/01/10 14:49:54;;;;;;;14.10;4.30;;;;;;;;;;4917746;29;20287;-64
2023/01/10 14:52:22;;;;;;;8.67;4.57;;;;;;;;;;4901456;29;20343;-64
2023/01/10 14:55:03;;;;;;;6.43;3.40;;;;;;;;;;4917540;29;20323;-62
2023/01/10 14:57:28;;;;;;;13.02;4.20;;;;;;;;;;4933129;29;20824;-63
2023/01/10 15:00:11;;;;;;;14.07;4.20;;;;;;;;;;4901993;29;20044;-64
2023/01/10 15:02:43;;;;;;;7.53;3.93;;;;;;;;;;4901797;29;20058;-65
2023/01/10 15:05:26;;;;;;;9.80;4.28;;;;;;;;;;4902244;29;20655;-64
2023/01/10 15:07:52;;;;;;;10.70;4.17;;;;;;;;;;4917697;29;20110;-64
2023/01/10 15:10:30;;;;;;;14.50;4.13;;;;;;;;;;4917170;29;20867;-63
2023/01/10 15:12:58;;;;;;;6.73;3.97;;;;;;;;;;4900768;29;20283;-65
2023/01/10 15:15:35;;;;;;;6.90;3.73;;;;;;;;;;4901692;29;20852;-64
2023/01/10 15:18:02;;;;;;;9.20;4.43;;;;;;;;;;4901505;29;20828;-64